Time;durP1;ratioP1;P1;durP2;ratioP2;P2;SDS_P1;SDS_P2;PMS_P1;PMS_P2;Temp;Humidity;BMP_temperature;BMP_pressure;BME280_temperature;BME280_humidity;BME280_pressure;Samples;Min_cycle;Max_cycle;Signal;HPM_P1;HPM_P2
2021/12/31 00:00:22;;;;;;;11.90;11.20;;;;;;;;;;4964851;28;20130;-69
2021/12/31 00:02:48;;;;;;;12.25;11.45;;;;;;;;;;4965529;28;20117;-69
2021/12/31 00:05:13;;;;;;;11.68;10.88;;;;;;;;;;4968372;28;20181;-70
2021/12/31 00:07:39;;;;;;;11.05;10.43;;;;;;;;;;4966415;28;20050;-69
2021/12/31 00:10:06;;;;;;;10.75;10.15;;;;;;;;;;4961262;28;20035;-69
2021/12/31 00:12:32;;;;;;;11.93;10.93;;;;;;;;;;4965749;28;20121;-70
2021/12/31 00:14:58;;;;;;;11.35;10.65;;;;;;;;;;4959386;28;20035;-69
2021/12/31 00:17:24;;;;;;;11.68;10.88;;;;;;;;;;4965309;28;20031;-70
2021/12/31 00:19:59;;;;;;;12.40;11.55;;;;;;;;;;4968532;28;20035;-70
2021/12/31 00:24:52;;;;;;;11.82;11.13;;;;;;;;;;4963309;28;20042;-69
2021/12/31 00:27:18;;;;;;;12.07;11.35;;;;;;;;;;4965297;28;20533;-70
2021/12/31 00:29:43;;;;;;;11.98;11.05;;;;;;;;;;4965824;28;20073;-69
2021/12/31 00:32:09;;;;;;;12.15;11.35;;;;;;;;;;4964077;28;20089;-70
2021/12/31 00:34:35;;;;;;;12.32;11.52;;;;;;;;;;4960033;28;20031;-70
2021/12/31 00:37:01;;;;;;;11.68;10.98;;;;;;;;;;4968472;28;20062;-70
2021/12/31 00:39:26;;;;;;;11.90;11.05;;;;;;;;;;4963672;28;20070;-69
2021/12/31 00:41:52;;;;;;;12.05;11.27;;;;;;;;;;4966481;28;20093;-70
2021/12/31 00:44:18;;;;;;;12.60;11.63;;;;;;;;;;4967589;28;20047;-69
2021/12/31 00:46:44;;;;;;;12.23;11.27;;;;;;;;;;4968243;28;20082;-70
2021/12/31 00:49:10;;;;;;;11.75;11.05;;;;;;;;;;4968638;28;20058;-70
2021/12/31 00:51:36;;;;;;;11.98;11.18;;;;;;;;;;4964159;28;20046;-69
2021/12/31 00:54:02;;;;;;;12.05;11.30;;;;;;;;;;4967987;28;20524;-70
2021/12/31 00:56:27;;;;;;;12.20;11.40;;;;;;;;;;4967876;28;20034;-70
2021/12/31 00:58:53;;;;;;;12.80;12.00;;;;;;;;;;4966069;28;20046;-69
2021/12/31 01:01:22;;;;;;;11.70;11.02;;;;;;;;;;4967227;28;20074;-69
2021/12/31 01:03:49;;;;;;;12.18;11.35;;;;;;;;;;4968234;28;20043;-69
2021/12/31 01:06:15;;;;;;;12.77;11.57;;;;;;;;;;4968560;28;20039;-70
2021/12/31 01:08:41;;;;;;;12.38;11.48;;;;;;;;;;4969775;28;20034;-70
2021/12/31 01:11:07;;;;;;;11.75;11.05;;;;;;;;;;4975573;28;20035;-69
2021/12/31 01:13:59;;;;;;;12.60;11.70;;;;;;;;;;4969725;28;20541;-70
2021/12/31 01:16:21;;;;;;;12.55;11.52;;;;;;;;;;4968087;28;20054;-70
2021/12/31 01:21:20;;;;;;;13.05;12.23;;;;;;;;;;4971342;28;20038;-70
2021/12/31 01:23:50;;;;;;;12.35;11.48;;;;;;;;;;4971902;28;20031;-70
2021/12/31 01:26:16;;;;;;;12.85;12.05;;;;;;;;;;4964261;28;20461;-69
2021/12/31 01:28:41;;;;;;;12.30;11.50;;;;;;;;;;4971132;28;20039;-69
2021/12/31 01:31:07;;;;;;;12.50;11.70;;;;;;;;;;4970499;28;20049;-69
2021/12/31 01:33:33;;;;;;;13.23;12.27;;;;;;;;;;4964940;28;20034;-69
2021/12/31 01:35:59;;;;;;;12.85;11.95;;;;;;;;;;4971033;28;20474;-69
2021/12/31 01:38:24;;;;;;;12.63;11.82;;;;;;;;;;4980844;28;20039;-69
2021/12/31 01:40:51;;;;;;;13.07;12.18;;;;;;;;;;4980824;28;20038;-70
2021/12/31 01:43:18;;;;;;;12.52;11.73;;;;;;;;;;4970389;28;20066;-70
2021/12/31 01:45:54;;;;;;;13.15;12.10;;;;;;;;;;4975781;28;20038;-70
2021/12/31 01:48:59;;;;;;;12.57;11.77;;;;;;;;;;4976863;28;20050;-69
2021/12/31 01:51:09;;;;;;;;;;;;;;;;;;4976436;28;20038;-69
2021/12/31 01:53:35;;;;;;;13.18;12.38;;;;;;;;;;4975251;28;19913;-69
2021/12/31 01:56:01;;;;;;;12.80;12.00;;;;;;;;;;4982418;28;20546;-69
2021/12/31 01:58:27;;;;;;;13.75;12.85;;;;;;;;;;4971689;28;20045;-69
2021/12/31 02:00:54;;;;;;;13.05;12.25;;;;;;;;;;4969418;28;20038;-69
2021/12/31 02:03:21;;;;;;;12.73;11.80;;;;;;;;;;4969671;28;20042;-69
2021/12/31 02:05:47;;;;;;;12.48;11.75;;;;;;;;;;4970155;28;20493;-69
2021/12/31 02:08:14;;;;;;;12.90;12.10;;;;;;;;;;4977286;28;20041;-70
2021/12/31 02:10:40;;;;;;;12.07;11.38;;;;;;;;;;4970304;28;20038;-69
2021/12/31 02:13:08;;;;;;;12.90;12.10;;;;;;;;;;4975490;28;20037;-69
2021/12/31 02:15:34;;;;;;;12.75;11.82;;;;;;;;;;4976361;28;20026;-69
2021/12/31 02:18:00;;;;;;;12.35;11.65;;;;;;;;;;4971286;28;20046;-69
2021/12/31 02:20:41;;;;;;;12.52;11.63;;;;;;;;;;4974257;28;20047;-69
2021/12/31 02:23:23;;;;;;;13.15;12.20;;;;;;;;;;4971660;28;20039;-69
2021/12/31 02:25:49;;;;;;;13.00;12.23;;;;;;;;;;4978300;28;20039;-69
2021/12/31 02:28:16;;;;;;;12.60;11.82;;;;;;;;;;4971495;28;20042;-70
2021/12/31 02:30:42;;;;;;;12.38;11.63;;;;;;;;;;4974817;28;20743;-69
2021/12/31 02:33:08;;;;;;;13.18;12.18;;;;;;;;;;4968394;28;20035;-69
2021/12/31 02:35:35;;;;;;;12.63;11.82;;;;;;;;;;4966638;28;20097;-69
2021/12/31 02:38:02;;;;;;;12.95;11.85;;;;;;;;;;4979242;28;20364;-70
2021/12/31 02:40:28;;;;;;;12.77;11.95;;;;;;;;;;4975284;28;20054;-70
2021/12/31 02:42:58;;;;;;;13.23;12.43;;;;;;;;;;4979443;28;20120;-70
2021/12/31 02:45:34;;;;;;;;;;;;;;;;;;4975495;28;20112;-70
2021/12/31 02:48:02;;;;;;;13.60;12.60;;;;;;;;;;4975311;28;20292;-70
2021/12/31 02:50:35;;;;;;;13.77;12.60;;;;;;;;;;4980326;28;20047;-69
2021/12/31 02:53:07;;;;;;;12.68;11.88;;;;;;;;;;4969938;28;20382;-69
2021/12/31 02:55:36;;;;;;;13.18;12.27;;;;;;;;;;4972558;28;20035;-69
2021/12/31 02:58:03;;;;;;;12.68;11.98;;;;;;;;;;4975500;28;20038;-70
2021/12/31 03:00:31;;;;;;;13.32;12.43;;;;;;;;;;4970332;28;20042;-69
2021/12/31 03:02:58;;;;;;;13.07;12.20;;;;;;;;;;4973920;28;20351;-70
2021/12/31 03:05:26;;;;;;;12.57;11.73;;;;;;;;;;4970909;28;20102;-69
2021/12/31 03:07:53;;;;;;;13.15;12.00;;;;;;;;;;4974470;28;20073;-69
2021/12/31 03:10:20;;;;;;;13.50;12.60;;;;;;;;;;4974008;28;20034;-70
2021/12/31 03:12:49;;;;;;;13.13;12.32;;;;;;;;;;4971589;28;20035;-70
2021/12/31 03:15:15;;;;;;;12.90;12.07;;;;;;;;;;4975403;28;20053;-70
2021/12/31 03:17:41;;;;;;;13.48;12.52;;;;;;;;;;4977033;28;20049;-70
2021/12/31 03:20:12;;;;;;;13.60;12.60;;;;;;;;;;4967951;28;20108;-70
2021/12/31 03:22:40;;;;;;;13.60;12.63;;;;;;;;;;4972026;28;20072;-70
2021/12/31 03:25:07;;;;;;;13.10;12.18;;;;;;;;;;4968887;28;20026;-70
2021/12/31 03:27:33;;;;;;;13.20;12.10;;;;;;;;;;4977457;28;20042;-70
2021/12/31 03:29:58;;;;;;;13.55;12.65;;;;;;;;;;4975292;28;20552;-70
2021/12/31 03:32:24;;;;;;;13.25;12.15;;;;;;;;;;4974354;28;20513;-69
2021/12/31 03:34:50;;;;;;;13.70;12.57;;;;;;;;;;4975331;28;20114;-70
2021/12/31 03:37:16;;;;;;;13.38;12.52;;;;;;;;;;4973124;28;20038;-70
2021/12/31 03:39:41;;;;;;;13.43;12.52;;;;;;;;;;4977774;28;20022;-70
2021/12/31 03:42:07;;;;;;;13.57;12.40;;;;;;;;;;4965443;28;20050;-69
2021/12/31 03:44:32;;;;;;;13.32;12.30;;;;;;;;;;4973826;28;20030;-69
2021/12/31 03:46:58;;;;;;;12.77;11.85;;;;;;;;;;4975526;28;20030;-70
2021/12/31 03:49:23;;;;;;;13.50;12.50;;;;;;;;;;4972138;28;20114;-70
2021/12/31 03:51:49;;;;;;;13.20;12.30;;;;;;;;;;4970084;28;20030;-70
2021/12/31 03:54:15;;;;;;;13.40;12.48;;;;;;;;;;4976887;28;20034;-69
2021/12/31 03:56:40;;;;;;;13.63;12.57;;;;;;;;;;4974105;28;20118;-70
2021/12/31 03:59:06;;;;;;;13.43;12.32;;;;;;;;;;4969249;28;20085;-70
2021/12/31 04:01:32;;;;;;;13.77;12.77;;;;;;;;;;4970918;28;20164;-70
2021/12/31 04:03:57;;;;;;;13.90;12.82;;;;;;;;;;4964683;28;20046;-70
2021/12/31 04:06:23;;;;;;;14.10;12.90;;;;;;;;;;4974953;28;20035;-70
2021/12/31 04:08:50;;;;;;;14.57;13.43;;;;;;;;;;4973437;28;20359;-70
2021/12/31 04:11:16;;;;;;;14.50;13.40;;;;;;;;;;4964944;28;20040;-69
2021/12/31 04:13:42;;;;;;;13.25;12.32;;;;;;;;;;4969034;28;20154;-69
2021/12/31 04:16:08;;;;;;;13.80;12.68;;;;;;;;;;4968586;28;20478;-70
2021/12/31 04:18:33;;;;;;;14.05;12.95;;;;;;;;;;4963264;28;20030;-70
2021/12/31 04:21:00;;;;;;;14.00;12.80;;;;;;;;;;4961994;28;20034;-70
2021/12/31 04:23:32;;;;;;;14.82;13.73;;;;;;;;;;4961827;28;20066;-71
2021/12/31 04:25:59;;;;;;;14.07;13.02;;;;;;;;;;4965171;28;20026;-70
2021/12/31 04:28:26;;;;;;;13.77;12.68;;;;;;;;;;4964878;28;20077;-70
2021/12/31 04:30:51;;;;;;;14.60;13.30;;;;;;;;;;4966734;28;20064;-69
2021/12/31 04:33:17;;;;;;;13.75;12.60;;;;;;;;;;4967660;28;20039;-69
2021/12/31 04:35:43;;;;;;;13.73;12.63;;;;;;;;;;4961190;28;20035;-71
2021/12/31 04:38:08;;;;;;;13.70;12.75;;;;;;;;;;4966919;28;20043;-70
2021/12/31 04:40:34;;;;;;;15.73;13.68;;;;;;;;;;4966838;28;20046;-71
2021/12/31 04:43:00;;;;;;;14.65;13.40;;;;;;;;;;4970720;28;20046;-71
2021/12/31 04:45:26;;;;;;;14.00;12.52;;;;;;;;;;4964809;28;20034;-70
2021/12/31 04:47:52;;;;;;;15.15;14.05;;;;;;;;;;4971086;28;20047;-70
2021/12/31 04:50:17;;;;;;;13.95;13.00;;;;;;;;;;4971188;28;20462;-70
2021/12/31 04:52:43;;;;;;;13.88;12.88;;;;;;;;;;4970332;28;20573;-70
2021/12/31 04:55:11;;;;;;;13.65;12.63;;;;;;;;;;4968753;28;20097;-70
2021/12/31 04:57:37;;;;;;;15.43;13.25;;;;;;;;;;4970578;28;20082;-70
2021/12/31 05:00:05;;;;;;;19.70;13.75;;;;;;;;;;4968822;28;20034;-70
2021/12/31 05:02:32;;;;;;;14.70;13.68;;;;;;;;;;4969686;28;20050;-70
2021/12/31 05:04:57;;;;;;;15.48;13.82;;;;;;;;;;4967638;28;20549;-70
2021/12/31 05:07:23;;;;;;;14.82;13.55;;;;;;;;;;4969130;28;20478;-70
2021/12/31 05:09:49;;;;;;;14.35;13.25;;;;;;;;;;4971442;28;20425;-70
2021/12/31 05:12:20;;;;;;;15.60;14.30;;;;;;;;;;4969889;28;20065;-70
2021/12/31 05:14:47;;;;;;;14.65;13.35;;;;;;;;;;4968099;28;20046;-70
2021/12/31 05:17:12;;;;;;;15.00;13.90;;;;;;;;;;4967395;28;20138;-70
2021/12/31 05:19:43;;;;;;;17.45;15.60;;;;;;;;;;4967930;28;20054;-70
2021/12/31 05:22:10;;;;;;;20.88;16.58;;;;;;;;;;4970534;28;20089;-70
2021/12/31 05:24:36;;;;;;;17.60;15.82;;;;;;;;;;4968948;28;20458;-71
2021/12/31 05:27:02;;;;;;;16.35;14.98;;;;;;;;;;4970961;28;20085;-70
2021/12/31 05:29:27;;;;;;;15.77;14.48;;;;;;;;;;4969324;28;20030;-70
2021/12/31 05:31:53;;;;;;;15.48;14.15;;;;;;;;;;4967982;28;20031;-70
2021/12/31 05:34:19;;;;;;;15.30;14.07;;;;;;;;;;4968784;28;20465;-70
2021/12/31 05:36:45;;;;;;;14.70;13.57;;;;;;;;;;4967074;28;20098;-70
2021/12/31 05:39:13;;;;;;;14.85;13.65;;;;;;;;;;4970354;28;20035;-70
2021/12/31 05:41:40;;;;;;;14.63;13.40;;;;;;;;;;4964993;28;20106;-70
2021/12/31 05:44:06;;;;;;;15.35;13.98;;;;;;;;;;4969288;28;20102;-70
2021/12/31 05:46:32;;;;;;;14.65;13.55;;;;;;;;;;4971251;28;20092;-70
2021/12/31 05:48:58;;;;;;;15.95;14.63;;;;;;;;;;4966576;28;20039;-70
2021/12/31 05:51:26;;;;;;;15.10;13.90;;;;;;;;;;4963653;28;20371;-70
2021/12/31 05:53:52;;;;;;;14.30;13.13;;;;;;;;;;4966570;28;20564;-70
2021/12/31 05:56:18;;;;;;;14.95;13.73;;;;;;;;;;4965278;28;20122;-70
2021/12/31 05:58:44;;;;;;;16.00;14.35;;;;;;;;;;4970682;28;20153;-70
2021/12/31 06:01:09;;;;;;;15.95;14.60;;;;;;;;;;4968364;28;20031;-71
2021/12/31 06:03:35;;;;;;;16.75;15.45;;;;;;;;;;4966986;28;20125;-70
2021/12/31 06:06:01;;;;;;;20.20;18.30;;;;;;;;;;4971164;28;20019;-70
2021/12/31 06:08:26;;;;;;;20.77;18.88;;;;;;;;;;4965253;28;20495;-71
2021/12/31 06:10:52;;;;;;;27.40;24.58;;;;;;;;;;4966963;28;20041;-69
2021/12/31 06:13:18;;;;;;;29.80;25.88;;;;;;;;;;4967626;28;20247;-71
2021/12/31 06:15:46;;;;;;;35.15;18.23;;;;;;;;;;4967846;28;20038;-71
2021/12/31 06:18:12;;;;;;;96.28;15.90;;;;;;;;;;4965948;28;20047;-70
2021/12/31 06:20:41;;;;;;;150.75;24.02;;;;;;;;;;4963018;28;20556;-71
2021/12/31 06:23:07;;;;;;;280.27;21.23;;;;;;;;;;4976980;28;20550;-70
2021/12/31 06:25:33;;;;;;;158.27;18.30;;;;;;;;;;4972245;28;20385;-71
2021/12/31 06:28:00;;;;;;;69.95;16.10;;;;;;;;;;4973576;28;20144;-70
2021/12/31 06:30:27;;;;;;;35.72;16.95;;;;;;;;;;4973439;28;20030;-70
2021/12/31 06:32:53;;;;;;;41.45;16.00;;;;;;;;;;4980627;28;20049;-70
2021/12/31 06:35:18;;;;;;;17.23;15.70;;;;;;;;;;4971716;28;20031;-70
2021/12/31 06:37:44;;;;;;;16.95;15.43;;;;;;;;;;4973927;28;20090;-70
2021/12/31 06:40:11;;;;;;;30.65;27.55;;;;;;;;;;4976540;28;20367;-70
2021/12/31 06:42:37;;;;;;;17.25;15.75;;;;;;;;;;4979022;28;20038;-70
2021/12/31 06:45:04;;;;;;;25.00;22.75;;;;;;;;;;4973258;28;20034;-70
2021/12/31 06:47:30;;;;;;;21.55;19.55;;;;;;;;;;4974023;28;20565;-70
2021/12/31 06:49:55;;;;;;;23.83;21.58;;;;;;;;;;4977476;28;20178;-70
2021/12/31 06:52:21;;;;;;;29.50;26.58;;;;;;;;;;4978781;28;20069;-70
2021/12/31 06:54:47;;;;;;;21.50;19.60;;;;;;;;;;4969137;28;20545;-71
2021/12/31 06:57:13;;;;;;;21.10;19.33;;;;;;;;;;4974691;28;20165;-71
2021/12/31 06:59:39;;;;;;;18.23;16.63;;;;;;;;;;4974144;28;20066;-70
2021/12/31 07:02:04;;;;;;;18.40;16.27;;;;;;;;;;4973620;28;20194;-70
2021/12/31 07:04:30;;;;;;;20.30;18.30;;;;;;;;;;4971131;28;20038;-70
2021/12/31 07:06:56;;;;;;;18.15;16.42;;;;;;;;;;4976427;28;20035;-70
2021/12/31 07:09:21;;;;;;;18.08;16.25;;;;;;;;;;4978063;28;20033;-70
2021/12/31 07:11:47;;;;;;;20.30;18.33;;;;;;;;;;4968968;28;20038;-70
2021/12/31 07:14:13;;;;;;;17.30;15.80;;;;;;;;;;4975459;28;20738;-71
2021/12/31 07:16:38;;;;;;;17.50;15.90;;;;;;;;;;4976084;28;20130;-70
2021/12/31 07:19:04;;;;;;;17.88;16.30;;;;;;;;;;4978471;28;20486;-70
2021/12/31 07:21:29;;;;;;;21.23;19.17;;;;;;;;;;4971305;28;20034;-69
2021/12/31 07:23:55;;;;;;;19.25;17.15;;;;;;;;;;4971527;28;20565;-69
2021/12/31 07:26:21;;;;;;;16.70;15.20;;;;;;;;;;4977298;28;20042;-70
2021/12/31 07:28:46;;;;;;;19.67;17.27;;;;;;;;;;4970824;28;20035;-69
2021/12/31 07:31:14;;;;;;;20.40;16.48;;;;;;;;;;4972547;28;20180;-69
2021/12/31 07:33:40;;;;;;;17.70;16.10;;;;;;;;;;4973155;28;20400;-69
2021/12/31 07:36:06;;;;;;;16.65;15.23;;;;;;;;;;4973336;28;20058;-70
2021/12/31 07:38:35;;;;;;;16.10;14.80;;;;;;;;;;4971968;28;20409;-70
2021/12/31 07:41:01;;;;;;;17.50;15.70;;;;;;;;;;4972227;28;20061;-69
2021/12/31 07:43:26;;;;;;;19.67;17.75;;;;;;;;;;4979893;28;20505;-70
2021/12/31 07:45:53;;;;;;;25.42;19.67;;;;;;;;;;4972424;28;20035;-69
2021/12/31 07:48:19;;;;;;;21.10;15.40;;;;;;;;;;4972663;28;20304;-69
2021/12/31 07:50:46;;;;;;;17.20;15.60;;;;;;;;;;4973774;28;20022;-70
2021/12/31 07:53:12;;;;;;;18.15;16.50;;;;;;;;;;4973730;28;20397;-69
2021/12/31 07:55:37;;;;;;;16.65;15.25;;;;;;;;;;4973734;28;20030;-69
2021/12/31 07:58:05;;;;;;;17.38;16.02;;;;;;;;;;4970748;28;20118;-69
2021/12/31 08:00:31;;;;;;;16.02;14.73;;;;;;;;;;4969485;28;20034;-69
2021/12/31 08:02:58;;;;;;;15.88;14.48;;;;;;;;;;4972701;28;20239;-69
2021/12/31 08:05:30;;;;;;;17.17;15.98;;;;;;;;;;4971184;28;20121;-69
2021/12/31 08:07:55;;;;;;;15.73;14.63;;;;;;;;;;4977406;28;20035;-69
2021/12/31 08:10:21;;;;;;;15.80;14.40;;;;;;;;;;4973936;28;20065;-69
2021/12/31 08:12:47;;;;;;;15.25;13.90;;;;;;;;;;4967937;28;20096;-69
2021/12/31 08:15:14;;;;;;;14.63;13.63;;;;;;;;;;4971612;28;20401;-69
2021/12/31 08:17:40;;;;;;;15.38;14.27;;;;;;;;;;4976662;28;20066;-69
2021/12/31 08:20:07;;;;;;;15.32;14.23;;;;;;;;;;4970287;28;20348;-70
2021/12/31 08:22:32;;;;;;;15.35;14.20;;;;;;;;;;4973710;28;20062;-70
2021/12/31 08:24:58;;;;;;;15.05;14.05;;;;;;;;;;4976185;28;20026;-69
2021/12/31 08:27:24;;;;;;;15.18;13.93;;;;;;;;;;4968928;28;20038;-69
2021/12/31 08:29:50;;;;;;;16.25;15.05;;;;;;;;;;4970515;28;20039;-69
2021/12/31 08:32:15;;;;;;;16.88;15.60;;;;;;;;;;4973204;28;20404;-69
2021/12/31 08:34:41;;;;;;;14.07;13.18;;;;;;;;;;4975215;28;20470;-70
2021/12/31 08:37:07;;;;;;;14.18;13.35;;;;;;;;;;4965768;28;20110;-70
2021/12/31 08:39:33;;;;;;;13.82;12.73;;;;;;;;;;4966910;28;20045;-70
2021/12/31 08:42:00;;;;;;;24.05;19.10;;;;;;;;;;4970281;28;20057;-70
2021/12/31 08:44:26;;;;;;;20.60;18.80;;;;;;;;;;4975544;28;20039;-69
2021/12/31 08:46:52;;;;;;;14.65;13.45;;;;;;;;;;4966892;28;20497;-70
2021/12/31 08:49:17;;;;;;;15.57;14.48;;;;;;;;;;4966744;28;20403;-70
2021/12/31 08:51:43;;;;;;;13.25;12.25;;;;;;;;;;4964265;28;20121;-69
2021/12/31 08:54:09;;;;;;;13.65;12.75;;;;;;;;;;4966398;28;20035;-69
2021/12/31 08:56:34;;;;;;;13.32;12.43;;;;;;;;;;4964643;28;20556;-70
2021/12/31 08:59:00;;;;;;;21.17;18.00;;;;;;;;;;4967559;28;20049;-69
2021/12/31 09:01:25;;;;;;;15.35;13.95;;;;;;;;;;4965868;28;20081;-70
2021/12/31 09:03:52;;;;;;;11.15;10.45;;;;;;;;;;4968030;28;20552;-69
2021/12/31 09:06:18;;;;;;;12.38;11.68;;;;;;;;;;4965018;28;20031;-70
2021/12/31 09:08:48;;;;;;;12.23;11.43;;;;;;;;;;4967598;28;20034;-70
2021/12/31 09:11:15;;;;;;;13.15;12.27;;;;;;;;;;4966861;28;20452;-70
2021/12/31 09:13:42;;;;;;;11.73;11.02;;;;;;;;;;4963008;28;20066;-70
2021/12/31 09:16:09;;;;;;;12.45;11.48;;;;;;;;;;4967033;28;20038;-70
2021/12/31 09:18:34;;;;;;;11.98;11.27;;;;;;;;;;4967886;28;20039;-70
2021/12/31 09:21:00;;;;;;;12.88;11.77;;;;;;;;;;4966081;28;20049;-70
2021/12/31 09:23:26;;;;;;;12.18;11.40;;;;;;;;;;4966059;28;20035;-70
2021/12/31 09:25:51;;;;;;;12.15;11.35;;;;;;;;;;4965840;28;20082;-70
2021/12/31 09:28:17;;;;;;;12.80;11.90;;;;;;;;;;4970676;28;20050;-70
2021/12/31 09:30:43;;;;;;;38.03;21.92;;;;;;;;;;4970160;28;20093;-70
2021/12/31 09:33:09;;;;;;;22.50;17.15;;;;;;;;;;4971212;28;20121;-70
2021/12/31 09:35:36;;;;;;;13.20;12.20;;;;;;;;;;4964211;28;20126;-69
2021/12/31 09:38:09;;;;;;;18.50;16.15;;;;;;;;;;4969321;28;20401;-69
2021/12/31 09:40:36;;;;;;;21.05;18.45;;;;;;;;;;4969871;28;20074;-70
2021/12/31 09:43:12;;;;;;;13.20;12.20;;;;;;;;;;4954699;28;20034;-70
2021/12/31 09:45:41;;;;;;;11.65;10.85;;;;;;;;;;4960688;28;20038;-70
2021/12/31 09:48:19;;;;;;;14.55;13.27;;;;;;;;;;4969084;28;20030;-71
2021/12/31 09:50:47;;;;;;;13.10;12.07;;;;;;;;;;4969190;28;20402;-71
2021/12/31 09:53:14;;;;;;;12.93;11.82;;;;;;;;;;4972110;28;20410;-70
2021/12/31 09:55:45;;;;;;;13.57;12.57;;;;;;;;;;4968969;28;20038;-71
2021/12/31 09:58:12;;;;;;;13.98;12.98;;;;;;;;;;4971365;28;20504;-69
2021/12/31 10:00:48;;;;;;;12.68;11.88;;;;;;;;;;4967828;28;20062;-70
2021/12/31 10:03:16;;;;;;;12.13;11.43;;;;;;;;;;4968953;28;20035;-71
2021/12/31 10:05:45;;;;;;;11.17;10.43;;;;;;;;;;4967209;28;20116;-70
2021/12/31 10:08:25;;;;;;;12.10;11.30;;;;;;;;;;4969433;28;20058;-70
2021/12/31 10:11:20;;;;;;;12.57;11.77;;;;;;;;;;4968389;28;20046;-70
2021/12/31 10:13:51;;;;;;;11.90;11.10;;;;;;;;;;4968323;28;20061;-70
2021/12/31 10:16:40;;;;;;;11.55;10.77;;;;;;;;;;4970242;28;20031;-70
2021/12/31 10:19:18;;;;;;;12.00;11.18;;;;;;;;;;4963334;28;20382;-70
2021/12/31 10:21:46;;;;;;;11.20;10.50;;;;;;;;;;4960103;28;20034;-71
2021/12/31 10:24:21;;;;;;;11.70;10.93;;;;;;;;;;4975789;28;20707;-70
2021/12/31 10:26:47;;;;;;;11.27;10.57;;;;;;;;;;4976114;28;20041;-71
2021/12/31 10:29:13;;;;;;;11.48;10.68;;;;;;;;;;4960579;28;20197;-70
2021/12/31 10:31:43;;;;;;;11.90;11.02;;;;;;;;;;4967604;28;20661;-72
2021/12/31 10:34:28;;;;;;;12.73;11.70;;;;;;;;;;4965512;28;20043;-70
2021/12/31 10:36:53;;;;;;;11.95;10.82;;;;;;;;;;4968554;28;20462;-71
2021/12/31 10:39:22;;;;;;;13.57;12.57;;;;;;;;;;4965296;28;20521;-70
2021/12/31 10:42:08;;;;;;;11.32;10.52;;;;;;;;;;4969877;28;20046;-72
2021/12/31 10:44:51;;;;;;;12.93;11.93;;;;;;;;;;4975014;28;20313;-71
2021/12/31 10:47:23;;;;;;;11.60;10.80;;;;;;;;;;4967588;28;20137;-70
2021/12/31 10:50:04;;;;;;;11.85;11.05;;;;;;;;;;4969004;28;20041;-71
2021/12/31 10:52:44;;;;;;;13.25;12.25;;;;;;;;;;4969629;28;20042;-71
2021/12/31 10:55:20;;;;;;;12.18;11.35;;;;;;;;;;4964873;28;20127;-71
2021/12/31 10:57:48;;;;;;;11.95;10.75;;;;;;;;;;4965318;28;20031;-71
2021/12/31 11:00:15;;;;;;;12.77;11.82;;;;;;;;;;4966421;28;20035;-70
2021/12/31 11:02:42;;;;;;;17.02;15.70;;;;;;;;;;4968511;28;20065;-70
2021/12/31 11:05:10;;;;;;;12.90;11.73;;;;;;;;;;4960527;28;20030;-70
2021/12/31 11:07:37;;;;;;;11.48;10.68;;;;;;;;;;4963898;28;20066;-70
2021/12/31 11:10:04;;;;;;;12.02;11.23;;;;;;;;;;4968530;28;20113;-70
2021/12/31 11:12:31;;;;;;;12.23;11.43;;;;;;;;;;4969740;28;20051;-71
2021/12/31 11:14:57;;;;;;;11.82;11.13;;;;;;;;;;4962989;28;20089;-71
2021/12/31 11:17:24;;;;;;;11.40;10.70;;;;;;;;;;4968514;28;20153;-70
2021/12/31 11:19:50;;;;;;;12.35;11.50;;;;;;;;;;4969342;28;20053;-70
2021/12/31 11:22:21;;;;;;;11.30;10.57;;;;;;;;;;4962686;28;20058;-70
2021/12/31 11:24:47;;;;;;;12.23;11.45;;;;;;;;;;4967459;28;20493;-71
2021/12/31 11:27:35;;;;;;;11.73;11.02;;;;;;;;;;4967003;28;20035;-71
2021/12/31 11:30:01;;;;;;;12.70;11.70;;;;;;;;;;4965198;28;20450;-70
2021/12/31 11:32:45;;;;;;;12.02;11.23;;;;;;;;;;4968102;28;20034;-70
2021/12/31 11:35:47;;;;;;;11.80;11.00;;;;;;;;;;4965773;28;20043;-70
2021/12/31 11:38:21;;;;;;;12.02;11.23;;;;;;;;;;4969814;28;20488;-70
2021/12/31 11:41:00;;;;;;;11.98;11.07;;;;;;;;;;4965764;28;20082;-67
2021/12/31 11:43:28;;;;;;;11.82;11.13;;;;;;;;;;4966308;28;20046;-69
2021/12/31 11:46:12;;;;;;;11.85;11.05;;;;;;;;;;4969438;28;20059;-70
2021/12/31 11:48:44;;;;;;;12.15;11.43;;;;;;;;;;4966377;28;20089;-70
2021/12/31 11:51:12;;;;;;;11.32;10.63;;;;;;;;;;4967361;28;20039;-71
2021/12/31 11:53:56;;;;;;;11.60;10.90;;;;;;;;;;4967882;28;20490;-70
2021/12/31 11:56:36;;;;;;;11.45;10.68;;;;;;;;;;4968654;28;20063;-70
2021/12/31 11:59:08;;;;;;;11.07;10.43;;;;;;;;;;4950607;28;20039;-70
2021/12/31 12:01:37;;;;;;;12.05;11.23;;;;;;;;;;4954834;28;20122;-70
2021/12/31 12:04:54;;;;;;;11.40;10.70;;;;;;;;;;4962283;28;20061;-71
2021/12/31 12:07:37;;;;;;;11.85;11.05;;;;;;;;;;4912292;29;20490;-70
2021/12/31 12:10:02;;;;;;;10.60;10.00;;;;;;;;;;4906352;29;20188;-70
2021/12/31 12:12:33;;;;;;;11.55;10.85;;;;;;;;;;4907128;29;20134;-70
2021/12/31 12:15:14;;;;;;;11.27;10.68;;;;;;;;;;4916335;29;20036;-70
2021/12/31 12:17:43;;;;;;;11.30;10.60;;;;;;;;;;4920924;29;20060;-71
2021/12/31 12:20:19;;;;;;;11.30;10.63;;;;;;;;;;4917009;29;20492;-70
2021/12/31 12:22:50;;;;;;;11.57;10.88;;;;;;;;;;4921162;29;20123;-70
2021/12/31 12:25:21;;;;;;;11.18;10.57;;;;;;;;;;4917575;29;20637;-70
2021/12/31 12:27:48;;;;;;;11.82;11.13;;;;;;;;;;4913538;29;20043;-70
2021/12/31 12:30:16;;;;;;;11.60;10.80;;;;;;;;;;4912936;29;21601;-70
2021/12/31 12:35:16;;;;;;;11.90;11.20;;;;;;;;;;4915751;29;20043;-70
2021/12/31 12:37:42;;;;;;;11.82;11.13;;;;;;;;;;4916467;29;20156;-70
2021/12/31 12:40:09;;;;;;;12.00;11.30;;;;;;;;;;4920055;29;20071;-70
2021/12/31 12:42:35;;;;;;;11.07;10.27;;;;;;;;;;4938596;28;20043;-70
2021/12/31 12:45:08;;;;;;;12.60;11.80;;;;;;;;;;4972369;28;20039;-71
2021/12/31 12:47:37;;;;;;;11.38;10.77;;;;;;;;;;4965892;28;20490;-70
2021/12/31 12:50:07;;;;;;;12.10;11.40;;;;;;;;;;4966094;28;20122;-70
2021/12/31 12:52:33;;;;;;;11.45;10.80;;;;;;;;;;4961132;28;20035;-70
2021/12/31 12:55:10;;;;;;;11.43;10.73;;;;;;;;;;4967544;28;20088;-70
2021/12/31 12:57:37;;;;;;;10.75;10.05;;;;;;;;;;4964533;28;20494;-68
2021/12/31 13:00:05;;;;;;;10.80;10.20;;;;;;;;;;4973135;28;20034;-71
2021/12/31 13:02:40;;;;;;;11.32;10.30;;;;;;;;;;4967631;28;20074;-70
2021/12/31 13:05:14;;;;;;;11.10;10.40;;;;;;;;;;4969094;28;20046;-70
2021/12/31 13:07:53;;;;;;;10.95;10.25;;;;;;;;;;4968620;28;20053;-70
2021/12/31 13:10:23;;;;;;;11.13;10.43;;;;;;;;;;4967349;28;20035;-70
2021/12/31 13:12:49;;;;;;;11.85;11.15;;;;;;;;;;4969106;28;20039;-69
2021/12/31 13:15:14;;;;;;;11.25;10.65;;;;;;;;;;4970395;28;20042;-70
2021/12/31 13:17:41;;;;;;;11.60;10.90;;;;;;;;;;4969203;28;20045;-70
2021/12/31 13:20:11;;;;;;;11.57;10.88;;;;;;;;;;4969594;28;20497;-70
2021/12/31 13:22:38;;;;;;;11.65;10.85;;;;;;;;;;4969412;28;20513;-70
2021/12/31 13:25:05;;;;;;;10.88;10.18;;;;;;;;;;4972668;28;20105;-69
2021/12/31 13:27:32;;;;;;;11.02;10.32;;;;;;;;;;4969032;28;20038;-69
2021/12/31 13:30:11;;;;;;;11.38;10.68;;;;;;;;;;4966617;28;20038;-69
2021/12/31 13:32:43;;;;;;;11.82;11.02;;;;;;;;;;4966001;28;20041;-69
2021/12/31 13:35:13;;;;;;;12.38;11.60;;;;;;;;;;4969676;28;20281;-70
2021/12/31 13:37:42;;;;;;;12.52;11.20;;;;;;;;;;4969454;28;20027;-70
2021/12/31 13:40:11;;;;;;;12.50;11.70;;;;;;;;;;4965897;28;20073;-69
2021/12/31 13:42:39;;;;;;;11.50;10.80;;;;;;;;;;4961994;28;20244;-70
2021/12/31 13:45:06;;;;;;;11.63;10.93;;;;;;;;;;4961689;28;20027;-70
2021/12/31 13:47:32;;;;;;;11.05;10.25;;;;;;;;;;4960512;28;20113;-68
2021/12/31 13:50:03;;;;;;;11.80;11.10;;;;;;;;;;4960867;28;20569;-69
2021/12/31 13:52:31;;;;;;;11.63;10.93;;;;;;;;;;4964475;28;20027;-68
2021/12/31 13:55:15;;;;;;;11.18;10.50;;;;;;;;;;4965705;28;20035;-69
2021/12/31 13:57:51;;;;;;;11.60;10.90;;;;;;;;;;4965201;28;20042;-69
2021/12/31 14:00:17;;;;;;;11.88;11.07;;;;;;;;;;4962770;28;20050;-69
2021/12/31 14:02:43;;;;;;;12.82;11.85;;;;;;;;;;4965867;28;20030;-69
2021/12/31 14:05:13;;;;;;;16.90;15.40;;;;;;;;;;4960775;28;20335;-69
2021/12/31 14:10:23;;;;;;;11.93;11.18;;;;;;;;;;4964647;28;20574;-69
2021/12/31 14:13:08;;;;;;;11.23;10.55;;;;;;;;;;4967222;28;20053;-70
2021/12/31 14:15:42;;;;;;;11.57;10.70;;;;;;;;;;4965658;28;20038;-69
2021/12/31 14:18:10;;;;;;;10.93;10.23;;;;;;;;;;4965833;28;20065;-69
2021/12/31 14:20:39;;;;;;;11.20;10.52;;;;;;;;;;4968477;28;20038;-69
2021/12/31 14:23:06;;;;;;;13.48;12.38;;;;;;;;;;4967901;28;20074;-69
2021/12/31 14:25:39;;;;;;;12.32;11.32;;;;;;;;;;4968248;28;20046;-69
2021/12/31 14:28:05;;;;;;;12.00;11.20;;;;;;;;;;4964975;28;20501;-69
2021/12/31 14:30:30;;;;;;;12.23;11.30;;;;;;;;;;4965388;28;20043;-69
2021/12/31 14:32:58;;;;;;;13.38;12.32;;;;;;;;;;4963876;28;20038;-69
2021/12/31 14:35:41;;;;;;;11.88;11.07;;;;;;;;;;4965132;28;20034;-71